Diamondville, Wyoming
Current Conditions -  °F | °C
As of 11:55 AM on Thursday 23 Oct 2014 (Local Time) from KEMM Reporting Station
Clear Clear  
Wind Chill: 55°   Ceiling: Unl
Heat Index: 55°   Visibility: 10mi
Dew Point: 27°   Wind: 13mph
Humidity: 33%   Direction: 240°WSW
Pressure: 30.23"   Gusts: NA
Location:  41.78°N, 110.54°W
Report Text: KEMM 231755Z AUTO 24011KT 10SM CLR 13/M03 A3023 RMK AO2
Loading
Personal Weather Stations






























Interactive Weather Map
Tropical Storm Tracking
New forecast layout! Learn more

10-Day Weather Forecast

Advertisements
Track Severe Weather on mobile